Time;durP1;ratioP1;P1;durP2;ratioP2;P2;SDS_P1;SDS_P2;PMS_P1;PMS_P2;Temp;Humidity;BMP_temperature;BMP_pressure;BME280_temperature;BME280_humidity;BME280_pressure;Samples;Min_cycle;Max_cycle;Signal;HPM_P1;HPM_P2
2022/10/22 00:00:43;;;;;;;7.90;3.55;;;;;;;;;;5034634;28;20624;-67
2022/10/22 00:03:09;;;;;;;7.20;4.30;;;;;;;;;;5029494;28;20179;-67
2022/10/22 00:05:34;;;;;;;8.40;4.82;;;;;;;;;;5033890;28;20194;-67
2022/10/22 00:07:59;;;;;;;8.80;4.05;;;;;;;;;;5036943;28;20190;-67
2022/10/22 00:10:24;;;;;;;9.35;3.97;;;;;;;;;;5032483;28;20736;-67
2022/10/22 00:12:49;;;;;;;6.78;3.80;;;;;;;;;;5036675;28;20205;-67
2022/10/22 00:15:14;;;;;;;6.50;3.55;;;;;;;;;;5030585;28;20194;-67
2022/10/22 00:17:40;;;;;;;7.82;3.80;;;;;;;;;;5034499;28;20188;-67
2022/10/22 00:20:05;;;;;;;8.68;3.92;;;;;;;;;;5027730;28;20170;-67
2022/10/22 00:22:31;;;;;;;4.00;3.60;;;;;;;;;;5030992;28;20213;-67
2022/10/22 00:24:56;;;;;;;8.32;4.03;;;;;;;;;;5032336;28;20265;-66
2022/10/22 00:27:21;;;;;;;9.63;3.97;;;;;;;;;;5030985;28;20197;-67
2022/10/22 00:29:46;;;;;;;9.52;3.78;;;;;;;;;;5035120;28;20183;-67
2022/10/22 00:32:11;;;;;;;7.75;4.10;;;;;;;;;;5027690;28;20280;-68
2022/10/22 00:34:37;;;;;;;7.75;3.45;;;;;;;;;;5030261;28;20214;-67
2022/10/22 00:37:02;;;;;;;11.35;3.55;;;;;;;;;;5036659;28;20689;-67
2022/10/22 00:39:27;;;;;;;6.28;3.45;;;;;;;;;;5033420;28;20242;-67
2022/10/22 00:41:53;;;;;;;8.77;3.67;;;;;;;;;;5032771;28;20182;-67
2022/10/22 00:44:37;;;;;;;4.50;3.95;;;;;;;;;;5032349;28;20174;-67
2022/10/22 00:47:02;;;;;;;9.50;4.20;;;;;;;;;;5052226;28;20292;-67
2022/10/22 00:49:27;;;;;;;6.00;3.50;;;;;;;;;;5030512;28;20266;-67
2022/10/22 00:51:52;;;;;;;12.50;4.15;;;;;;;;;;5035357;28;20232;-68
2022/10/22 00:54:18;;;;;;;7.78;3.63;;;;;;;;;;5030081;28;20206;-67
2022/10/22 00:56:43;;;;;;;8.48;3.88;;;;;;;;;;5030323;28;20201;-68
2022/10/22 00:59:09;;;;;;;7.82;3.60;;;;;;;;;;5035617;28;20253;-67
2022/10/22 01:01:34;;;;;;;6.40;4.22;;;;;;;;;;5033555;28;20234;-69
2022/10/22 01:03:59;;;;;;;8.60;4.72;;;;;;;;;;5031019;28;20227;-68
2022/10/22 01:06:26;;;;;;;10.57;4.15;;;;;;;;;;5026682;28;20664;-68
2022/10/22 01:09:09;;;;;;;6.57;3.65;;;;;;;;;;5030302;28;20174;-67
2022/10/22 01:11:45;;;;;;;8.77;4.85;;;;;;;;;;5029030;28;20683;-68
2022/10/22 01:14:11;;;;;;;7.88;4.53;;;;;;;;;;5029993;28;20209;-68
2022/10/22 01:16:39;;;;;;;6.25;4.43;;;;;;;;;;5030130;28;20222;-68
2022/10/22 01:19:04;;;;;;;9.32;4.43;;;;;;;;;;5029637;28;20934;-69
2022/10/22 01:21:31;;;;;;;11.25;5.32;;;;;;;;;;5030002;28;20174;-68
2022/10/22 01:24:15;;;;;;;9.80;4.60;;;;;;;;;;5025613;28;20265;-69
2022/10/22 01:26:43;;;;;;;10.98;5.00;;;;;;;;;;5034575;28;20213;-68
2022/10/22 01:29:10;;;;;;;7.78;5.28;;;;;;;;;;5031643;28;20228;-68
2022/10/22 01:31:43;;;;;;;11.93;4.63;;;;;;;;;;5033554;28;20202;-69
2022/10/22 01:34:09;;;;;;;10.77;5.20;;;;;;;;;;5025519;28;20187;-69
2022/10/22 01:36:35;;;;;;;14.02;5.70;;;;;;;;;;5028771;28;20675;-68
2022/10/22 01:39:01;;;;;;;7.68;4.82;;;;;;;;;;5030344;28;20195;-68
2022/10/22 01:41:29;;;;;;;9.02;5.03;;;;;;;;;;5026158;28;20220;-69
2022/10/22 01:43:54;;;;;;;8.30;4.00;;;;;;;;;;5035569;28;20407;-68
2022/10/22 01:46:21;;;;;;;8.57;4.75;;;;;;;;;;5029678;28;20351;-68
2022/10/22 01:49:00;;;;;;;5.82;4.18;;;;;;;;;;5029850;28;20185;-69
2022/10/22 01:51:28;;;;;;;7.85;4.68;;;;;;;;;;5029070;28;20198;-68
2022/10/22 01:53:53;;;;;;;8.38;4.50;;;;;;;;;;5030035;28;20696;-68
2022/10/22 01:56:39;;;;;;;8.73;3.97;;;;;;;;;;5025789;28;20865;-68
2022/10/22 01:59:05;;;;;;;7.85;4.82;;;;;;;;;;5033026;28;20396;-68
2022/10/22 02:01:49;;;;;;;7.32;4.78;;;;;;;;;;5029909;28;20181;-69
2022/10/22 02:04:20;;;;;;;6.55;4.50;;;;;;;;;;5033239;28;20205;-68
2022/10/22 02:06:46;;;;;;;6.63;4.13;;;;;;;;;;5029510;28;20671;-68
2022/10/22 02:09:13;;;;;;;10.52;5.00;;;;;;;;;;5033599;28;20200;-69
2022/10/22 02:11:40;;;;;;;7.15;4.18;;;;;;;;;;5030418;28;20221;-68
2022/10/22 02:14:06;;;;;;;11.23;5.70;;;;;;;;;;5025401;28;20525;-68
2022/10/22 02:16:37;;;;;;;11.38;5.05;;;;;;;;;;5029454;28;20255;-69
2022/10/22 02:19:06;;;;;;;7.22;5.57;;;;;;;;;;5030088;28;20178;-68
2022/10/22 02:21:31;;;;;;;11.25;4.95;;;;;;;;;;5034105;28;20269;-69
2022/10/22 02:23:57;;;;;;;7.47;4.65;;;;;;;;;;5033904;28;20274;-69
2022/10/22 02:26:45;;;;;;;9.98;4.55;;;;;;;;;;5033686;28;20224;-69
2022/10/22 02:29:16;;;;;;;7.97;4.85;;;;;;;;;;5023682;28;20733;-68
2022/10/22 02:31:43;;;;;;;10.85;5.28;;;;;;;;;;5037803;28;20263;-68
2022/10/22 02:34:10;;;;;;;9.77;5.38;;;;;;;;;;5033144;28;20171;-69
2022/10/22 02:36:36;;;;;;;10.38;4.47;;;;;;;;;;5038154;28;20214;-68
2022/10/22 02:39:01;;;;;;;11.50;4.25;;;;;;;;;;5033202;28;20667;-68
2022/10/22 02:41:26;;;;;;;9.27;3.90;;;;;;;;;;5028425;28;20174;-68
2022/10/22 02:43:53;;;;;;;8.23;4.90;;;;;;;;;;5038013;28;20210;-68
2022/10/22 02:46:18;;;;;;;8.23;5.50;;;;;;;;;;5033120;28;20205;-69
2022/10/22 02:48:43;;;;;;;12.88;3.95;;;;;;;;;;5025692;28;20166;-68
2022/10/22 02:51:08;;;;;;;7.80;4.20;;;;;;;;;;5028230;28;20260;-68
2022/10/22 02:53:34;;;;;;;6.38;4.18;;;;;;;;;;5033278;28;20170;-68
2022/10/22 02:55:59;;;;;;;12.70;6.40;;;;;;;;;;5032052;28;20204;-68
2022/10/22 02:58:24;;;;;;;9.77;4.57;;;;;;;;;;5032911;28;20178;-68
2022/10/22 03:00:49;;;;;;;8.68;4.57;;;;;;;;;;5033370;28;20162;-68
2022/10/22 03:03:14;;;;;;;10.05;4.05;;;;;;;;;;5031732;28;20281;-68
2022/10/22 03:05:40;;;;;;;14.45;6.13;;;;;;;;;;5028912;28;20201;-69
2022/10/22 03:08:05;;;;;;;5.70;3.88;;;;;;;;;;5034477;28;20189;-68
2022/10/22 03:10:30;;;;;;;7.10;3.40;;;;;;;;;;5035765;28;20296;-68
2022/10/22 03:12:55;;;;;;;9.10;4.68;;;;;;;;;;5039224;28;20654;-68
2022/10/22 03:15:20;;;;;;;11.43;4.47;;;;;;;;;;5035781;28;20198;-67
2022/10/22 03:17:46;;;;;;;7.55;3.75;;;;;;;;;;5035064;28;20252;-68
2022/10/22 03:20:11;;;;;;;9.48;4.82;;;;;;;;;;5032690;28;20215;-67
2022/10/22 03:22:38;;;;;;;8.82;3.75;;;;;;;;;;5034052;28;20186;-68
2022/10/22 03:25:06;;;;;;;10.52;3.90;;;;;;;;;;5029636;28;20457;-68
2022/10/22 03:27:32;;;;;;;8.52;3.53;;;;;;;;;;5045550;22;20226;-74
2022/10/22 03:29:58;;;;;;;11.00;4.82;;;;;;;;;;5032244;28;20186;-74
2022/10/22 03:32:23;;;;;;;14.43;4.43;;;;;;;;;;5028648;28;20209;-73
2022/10/22 03:34:48;;;;;;;9.75;3.58;;;;;;;;;;5031901;28;20248;-73
2022/10/22 03:37:14;;;;;;;7.15;3.78;;;;;;;;;;5024568;28;20281;-73
2022/10/22 03:39:39;;;;;;;7.93;3.80;;;;;;;;;;5017409;28;20305;-74
2022/10/22 03:42:05;;;;;;;8.95;3.67;;;;;;;;;;4996721;28;20566;-74
2022/10/22 03:44:30;;;;;;;9.77;3.38;;;;;;;;;;5018059;28;20194;-73
2022/10/22 03:46:55;;;;;;;11.63;3.90;;;;;;;;;;5028865;28;20190;-73
2022/10/22 03:49:21;;;;;;;8.13;3.92;;;;;;;;;;5021158;28;20186;-74
2022/10/22 03:51:46;;;;;;;6.25;3.47;;;;;;;;;;5027269;28;20190;-73
2022/10/22 03:54:11;;;;;;;12.52;4.20;;;;;;;;;;5019269;28;20229;-74
2022/10/22 03:56:36;;;;;;;7.30;3.78;;;;;;;;;;5018276;28;20207;-73
2022/10/22 03:59:02;;;;;;;6.60;3.63;;;;;;;;;;5014310;28;20186;-73
2022/10/22 04:01:28;;;;;;;10.45;3.70;;;;;;;;;;5023330;28;20240;-73
2022/10/22 04:03:54;;;;;;;7.78;3.90;;;;;;;;;;5006322;28;20636;-73
2022/10/22 04:06:19;;;;;;;7.43;3.63;;;;;;;;;;5023078;28;20266;-73
2022/10/22 04:08:45;;;;;;;7.43;3.33;;;;;;;;;;5023784;28;20171;-73
2022/10/22 04:11:10;;;;;;;12.43;4.75;;;;;;;;;;5019107;28;20304;-73
2022/10/22 04:13:36;;;;;;;10.02;3.33;;;;;;;;;;5021922;28;20205;-73
2022/10/22 04:16:08;;;;;;;9.10;3.60;;;;;;;;;;5007833;28;20719;-73
2022/10/22 04:18:33;;;;;;;8.00;3.60;;;;;;;;;;5022266;28;20281;-73
2022/10/22 04:20:58;;;;;;;8.15;3.85;;;;;;;;;;5003282;28;20194;-73
2022/10/22 04:23:24;;;;;;;6.78;3.35;;;;;;;;;;5016903;28;20659;-73
2022/10/22 04:25:49;;;;;;;6.93;3.17;;;;;;;;;;5013936;28;20707;-73
2022/10/22 04:28:14;;;;;;;10.25;3.38;;;;;;;;;;5019649;28;20187;-72
2022/10/22 04:30:39;;;;;;;7.90;3.60;;;;;;;;;;5006934;28;20556;-73
2022/10/22 04:33:04;;;;;;;8.65;4.75;;;;;;;;;;5006469;28;20207;-73
2022/10/22 04:35:29;;;;;;;12.32;4.22;;;;;;;;;;5009443;28;20190;-73
2022/10/22 04:37:55;;;;;;;5.68;3.08;;;;;;;;;;5015555;28;20676;-73
2022/10/22 04:40:20;;;;;;;9.40;4.05;;;;;;;;;;5019981;28;20178;-73
2022/10/22 04:42:45;;;;;;;6.25;3.20;;;;;;;;;;5020074;28;20214;-72
2022/10/22 04:45:11;;;;;;;5.68;3.67;;;;;;;;;;5021486;28;20178;-73
2022/10/22 04:47:36;;;;;;;7.38;3.20;;;;;;;;;;5014152;28;20178;-72
2022/10/22 04:50:01;;;;;;;5.65;3.35;;;;;;;;;;5015465;28;20174;-73
2022/10/22 04:52:26;;;;;;;10.25;3.22;;;;;;;;;;5003922;28;20202;-73
2022/10/22 04:54:52;;;;;;;6.30;3.50;;;;;;;;;;5006132;28;20162;-73
2022/10/22 04:57:17;;;;;;;7.25;4.60;;;;;;;;;;5015788;28;20615;-73
2022/10/22 04:59:42;;;;;;;7.60;3.30;;;;;;;;;;4997360;28;20186;-73
2022/10/22 05:02:07;;;;;;;7.90;3.53;;;;;;;;;;5019468;28;20178;-72
2022/10/22 05:04:32;;;;;;;6.20;3.38;;;;;;;;;;5025545;28;20247;-73
2022/10/22 05:06:58;;;;;;;8.60;3.45;;;;;;;;;;4997294;28;20198;-73
2022/10/22 05:09:23;;;;;;;8.38;4.45;;;;;;;;;;5015477;28;20611;-73
2022/10/22 05:11:49;;;;;;;7.97;3.78;;;;;;;;;;5001476;28;20249;-73
2022/10/22 05:14:16;;;;;;;8.95;3.25;;;;;;;;;;5011257;28;20182;-73
2022/10/22 05:16:41;;;;;;;6.43;4.25;;;;;;;;;;5022358;28;20194;-73
2022/10/22 05:19:07;;;;;;;9.63;3.83;;;;;;;;;;5015837;28;20175;-72
2022/10/22 05:21:32;;;;;;;11.60;3.20;;;;;;;;;;5021643;28;20174;-73
2022/10/22 05:24:00;;;;;;;7.25;3.92;;;;;;;;;;5016318;28;20191;-72
2022/10/22 05:26:26;;;;;;;6.13;3.47;;;;;;;;;;5007135;28;20216;-73
2022/10/22 05:28:51;;;;;;;9.48;3.63;;;;;;;;;;5006237;28;20259;-73
2022/10/22 05:31:17;;;;;;;12.48;4.18;;;;;;;;;;5016124;28;20225;-73
2022/10/22 05:33:42;;;;;;;8.02;3.60;;;;;;;;;;5010677;28;20186;-73
2022/10/22 05:36:09;;;;;;;6.82;3.38;;;;;;;;;;5004480;28;20222;-73
2022/10/22 05:38:34;;;;;;;7.18;3.65;;;;;;;;;;5021912;28;20176;-73
2022/10/22 05:41:04;;;;;;;9.90;4.18;;;;;;;;;;5006559;28;20560;-73
2022/10/22 05:43:29;;;;;;;5.18;2.95;;;;;;;;;;5017778;28;20286;-73
2022/10/22 05:45:54;;;;;;;7.38;4.05;;;;;;;;;;4992304;28;20638;-72
2022/10/22 05:48:20;;;;;;;7.97;3.10;;;;;;;;;;5021047;28;20178;-73
2022/10/22 05:50:49;;;;;;;11.23;3.80;;;;;;;;;;5014890;28;20271;-73
2022/10/22 05:53:15;;;;;;;8.55;3.90;;;;;;;;;;5019103;28;20206;-73
2022/10/22 05:55:40;;;;;;;9.32;3.67;;;;;;;;;;5012635;28;20206;-73
2022/10/22 05:58:05;;;;;;;10.80;3.47;;;;;;;;;;5020011;28;20221;-73
2022/10/22 06:00:30;;;;;;;10.85;3.90;;;;;;;;;;5012208;28;20180;-73
2022/10/22 06:02:55;;;;;;;7.60;3.47;;;;;;;;;;5016386;28;20258;-73
2022/10/22 06:05:21;;;;;;;6.80;3.55;;;;;;;;;;5028602;28;20182;-73
2022/10/22 06:07:46;;;;;;;7.15;3.42;;;;;;;;;;5015863;28;20253;-73
2022/10/22 06:10:15;;;;;;;7.25;3.53;;;;;;;;;;5002250;28;20611;-73
2022/10/22 06:12:40;;;;;;;5.15;3.00;;;;;;;;;;5017409;28;20704;-73
2022/10/22 06:15:06;;;;;;;7.63;3.40;;;;;;;;;;5019799;28;20189;-73
2022/10/22 06:17:31;;;;;;;6.22;3.15;;;;;;;;;;5008360;28;20199;-73
2022/10/22 06:19:56;;;;;;;10.25;3.00;;;;;;;;;;5002616;28;20174;-73
2022/10/22 06:22:22;;;;;;;7.30;3.70;;;;;;;;;;5023896;28;20725;-73
2022/10/22 06:24:47;;;;;;;7.70;4.78;;;;;;;;;;5018087;28;20189;-73
2022/10/22 06:27:12;;;;;;;9.57;3.78;;;;;;;;;;5006622;28;20567;-73
2022/10/22 06:29:37;;;;;;;5.40;3.50;;;;;;;;;;5018350;28;20179;-73
2022/10/22 06:32:02;;;;;;;9.52;4.07;;;;;;;;;;5002387;28;20191;-73
2022/10/22 06:34:28;;;;;;;11.50;3.88;;;;;;;;;;4992772;28;20269;-73
2022/10/22 06:36:53;;;;;;;6.88;4.13;;;;;;;;;;4989397;28;20282;-73
2022/10/22 06:39:18;;;;;;;7.82;4.38;;;;;;;;;;5016180;28;20620;-73
2022/10/22 06:41:43;;;;;;;9.00;3.20;;;;;;;;;;5017679;28;20672;-73
2022/10/22 06:44:13;;;;;;;6.07;3.30;;;;;;;;;;5020431;28;20187;-73
2022/10/22 06:46:38;;;;;;;7.53;3.22;;;;;;;;;;5022076;28;20575;-73
2022/10/22 06:49:04;;;;;;;11.30;4.32;;;;;;;;;;5014517;28;20182;-73
2022/10/22 06:51:30;;;;;;;11.23;3.17;;;;;;;;;;5013914;28;20657;-73
2022/10/22 06:53:56;;;;;;;7.75;3.40;;;;;;;;;;5016512;28;20221;-73
2022/10/22 06:56:22;;;;;;;7.68;3.65;;;;;;;;;;5005651;28;20683;-74
2022/10/22 06:58:47;;;;;;;15.90;5.10;;;;;;;;;;5011256;28;20176;-74
2022/10/22 07:01:13;;;;;;;10.27;3.40;;;;;;;;;;5018835;28;20221;-74
2022/10/22 07:03:39;;;;;;;8.93;3.63;;;;;;;;;;5010715;28;20249;-74
2022/10/22 07:06:06;;;;;;;9.07;3.40;;;;;;;;;;5021121;28;20575;-73
2022/10/22 07:08:32;;;;;;;6.93;3.10;;;;;;;;;;5020980;28;20687;-73
2022/10/22 07:11:04;;;;;;;10.85;3.45;;;;;;;;;;5021821;28;20197;-73
2022/10/22 07:13:29;;;;;;;11.68;3.05;;;;;;;;;;5010659;28;20213;-74
2022/10/22 07:15:55;;;;;;;9.60;3.22;;;;;;;;;;5018893;28;20187;-73
2022/10/22 07:18:20;;;;;;;8.90;3.17;;;;;;;;;;5016083;28;20724;-73
2022/10/22 07:20:46;;;;;;;8.60;3.28;;;;;;;;;;5015450;28;20224;-74
2022/10/22 07:23:11;;;;;;;8.52;2.83;;;;;;;;;;5024295;28;20263;-73
2022/10/22 07:25:37;;;;;;;8.00;2.88;;;;;;;;;;5016267;28;20265;-73
2022/10/22 07:28:02;;;;;;;15.43;3.17;;;;;;;;;;5020345;28;20186;-73
2022/10/22 07:30:27;;;;;;;13.02;2.92;;;;;;;;;;5017098;28;20194;-73
2022/10/22 07:32:52;;;;;;;11.07;2.90;;;;;;;;;;5003564;28;20281;-72
2022/10/22 07:35:17;;;;;;;10.07;3.00;;;;;;;;;;5018535;28;20655;-73
2022/10/22 07:37:43;;;;;;;9.13;3.75;;;;;;;;;;5008266;28;20174;-74
2022/10/22 07:40:08;;;;;;;6.72;2.45;;;;;;;;;;5016612;28;20459;-74
2022/10/22 07:42:33;;;;;;;7.72;2.20;;;;;;;;;;5016558;28;20727;-73
2022/10/22 07:44:58;;;;;;;7.45;2.10;;;;;;;;;;5020525;28;20699;-73
2022/10/22 07:47:23;;;;;;;8.43;2.38;;;;;;;;;;5016313;28;20210;-73
2022/10/22 07:49:49;;;;;;;6.05;2.25;;;;;;;;;;5015461;28;20190;-73
2022/10/22 07:52:14;;;;;;;6.00;2.30;;;;;;;;;;5011937;28;20199;-74
2022/10/22 07:54:39;;;;;;;8.45;3.58;;;;;;;;;;5019891;28;20171;-73
2022/10/22 07:57:04;;;;;;;7.20;2.33;;;;;;;;;;5012486;28;20692;-73
2022/10/22 07:59:29;;;;;;;4.28;2.10;;;;;;;;;;4996875;28;20496;-74
2022/10/22 08:01:55;;;;;;;5.65;2.28;;;;;;;;;;5013560;28;20185;-72
2022/10/22 08:04:20;;;;;;;5.68;2.08;;;;;;;;;;5014518;28;20181;-74
2022/10/22 08:06:45;;;;;;;10.50;2.15;;;;;;;;;;5017614;28;20195;-74
2022/10/22 08:09:10;;;;;;;6.72;2.08;;;;;;;;;;5010435;28;20308;-74
2022/10/22 08:11:37;;;;;;;6.88;2.17;;;;;;;;;;5017764;28;20187;-73
2022/10/22 08:14:02;;;;;;;9.55;3.95;;;;;;;;;;5019133;28;20175;-72
2022/10/22 08:16:27;;;;;;;4.28;2.10;;;;;;;;;;5020262;28;20201;-72
2022/10/22 08:18:53;;;;;;;5.70;2.10;;;;;;;;;;5013896;28;20561;-73
2022/10/22 08:21:18;;;;;;;6.63;2.23;;;;;;;;;;5020092;28;20308;-72
2022/10/22 08:23:43;;;;;;;5.93;1.90;;;;;;;;;;5019890;28;20412;-72
2022/10/22 08:26:09;;;;;;;8.25;1.92;;;;;;;;;;5014359;28;20280;-73
2022/10/22 08:28:35;;;;;;;6.22;1.75;;;;;;;;;;5013197;28;20288;-73
2022/10/22 08:31:01;;;;;;;6.72;1.83;;;;;;;;;;5015004;28;20188;-72
2022/10/22 08:33:27;;;;;;;5.72;1.80;;;;;;;;;;5013136;28;20194;-73
2022/10/22 08:35:52;;;;;;;14.13;2.88;;;;;;;;;;5021699;28;20538;-73
2022/10/22 08:38:17;;;;;;;5.25;2.20;;;;;;;;;;5020181;28;20187;-75
2022/10/22 08:40:45;;;;;;;8.18;2.08;;;;;;;;;;5016696;28;20183;-71
2022/10/22 08:43:26;;;;;;;9.23;2.35;;;;;;;;;;5017911;28;20199;-73
2022/10/22 08:45:54;;;;;;;11.82;2.67;;;;;;;;;;5008643;28;20230;-73
2022/10/22 08:48:36;;;;;;;9.98;2.13;;;;;;;;;;5012670;28;20621;-73
2022/10/22 08:51:01;;;;;;;5.65;1.50;;;;;;;;;;5012684;28;20523;-73
2022/10/22 08:53:39;;;;;;;6.40;2.15;;;;;;;;;;5012878;28;20201;-73
2022/10/22 08:56:05;;;;;;;5.30;1.77;;;;;;;;;;5016418;28;20696;-71
2022/10/22 08:58:43;;;;;;;7.97;2.22;;;;;;;;;;5017232;28;20257;-72
2022/10/22 09:01:18;;;;;;;5.13;1.92;;;;;;;;;;5006575;28;20402;-71
2022/10/22 09:03:50;;;;;;;6.97;2.55;;;;;;;;;;5018694;28;20185;-72
2022/10/22 09:06:21;;;;;;;9.60;2.97;;;;;;;;;;5021449;28;20252;-72
2022/10/22 09:08:47;;;;;;;6.47;1.88;;;;;;;;;;5022914;28;20182;-71
2022/10/22 09:11:12;;;;;;;7.28;2.10;;;;;;;;;;5017407;28;20190;-72
2022/10/22 09:13:39;;;;;;;7.67;2.33;;;;;;;;;;5024428;28;20281;-72
2022/10/22 09:16:23;;;;;;;5.00;1.85;;;;;;;;;;5012691;28;20475;-71
2022/10/22 09:18:54;;;;;;;7.03;2.00;;;;;;;;;;5021687;28;20589;-72
2022/10/22 09:21:27;;;;;;;6.50;2.38;;;;;;;;;;5020577;28;20220;-72
2022/10/22 09:23:52;;;;;;;5.60;1.85;;;;;;;;;;5025062;28;20532;-72
2022/10/22 09:26:17;;;;;;;3.60;1.63;;;;;;;;;;5017900;28;20214;-72
2022/10/22 09:28:42;;;;;;;9.10;2.03;;;;;;;;;;5021603;28;20488;-71
2022/10/22 09:31:11;;;;;;;6.30;1.77;;;;;;;;;;5015261;28;20178;-71
2022/10/22 09:33:37;;;;;;;7.13;2.28;;;;;;;;;;5007189;28;21064;-71
2022/10/22 09:36:05;;;;;;;3.20;1.48;;;;;;;;;;5010418;28;20672;-71
2022/10/22 09:38:32;;;;;;;7.40;2.53;;;;;;;;;;5009670;28;20171;-71
2022/10/22 09:40:58;;;;;;;6.13;2.60;;;;;;;;;;5013389;28;20171;-71
2022/10/22 09:43:23;;;;;;;6.10;1.90;;;;;;;;;;5012379;28;20566;-71
2022/10/22 09:45:55;;;;;;;5.75;1.92;;;;;;;;;;5009008;28;20274;-71
2022/10/22 09:48:25;;;;;;;5.75;1.98;;;;;;;;;;5001592;28;20205;-71
2022/10/22 09:50:54;;;;;;;5.10;1.60;;;;;;;;;;5019393;28;20175;-70
2022/10/22 09:53:21;;;;;;;6.85;2.30;;;;;;;;;;5019443;28;20217;-71
2022/10/22 09:55:51;;;;;;;7.82;2.03;;;;;;;;;;5012068;28;20245;-71
2022/10/22 09:58:17;;;;;;;7.50;2.30;;;;;;;;;;5016079;28;20178;-73
2022/10/22 10:00:43;;;;;;;8.82;2.80;;;;;;;;;;5006726;28;20190;-69
2022/10/22 10:03:15;;;;;;;7.93;1.85;;;;;;;;;;5020064;28;20186;-71
2022/10/22 10:05:40;;;;;;;4.47;1.33;;;;;;;;;;5011494;28;20210;-71
2022/10/22 10:08:12;;;;;;;4.53;1.40;;;;;;;;;;5020207;28;20178;-71
2022/10/22 10:10:45;;;;;;;3.40;1.40;;;;;;;;;;5012417;28;20495;-71
2022/10/22 10:13:14;;;;;;;5.38;1.98;;;;;;;;;;5018218;28;20205;-71
2022/10/22 10:15:45;;;;;;;4.65;2.60;;;;;;;;;;5001247;28;20195;-71
2022/10/22 10:18:23;;;;;;;5.32;1.98;;;;;;;;;;4994248;28;20179;-71
2022/10/22 10:21:06;;;;;;;6.32;1.60;;;;;;;;;;5004870;28;20239;-71
2022/10/22 10:23:42;;;;;;;9.40;1.88;;;;;;;;;;5012212;28;20625;-71
2022/10/22 10:26:36;;;;;;;7.30;2.20;;;;;;;;;;5014499;28;20304;-71
2022/10/22 10:29:13;;;;;;;7.07;2.20;;;;;;;;;;4994048;28;20205;-71
2022/10/22 10:31:47;;;;;;;9.23;2.38;;;;;;;;;;5011478;28;20233;-71
2022/10/22 10:34:28;;;;;;;5.68;1.50;;;;;;;;;;5013724;28;20218;-71
2022/10/22 10:37:02;;;;;;;5.28;1.27;;;;;;;;;;5023399;28;20255;-71
2022/10/22 10:39:40;;;;;;;4.28;1.48;;;;;;;;;;5017127;28;20710;-71
2022/10/22 10:42:11;;;;;;;5.10;1.67;;;;;;;;;;5018862;28;20182;-71
2022/10/22 10:44:52;;;;;;;5.30;1.63;;;;;;;;;;5021394;28;20209;-71
2022/10/22 10:47:40;;;;;;;15.02;1.48;;;;;;;;;;4995617;28;20633;-72
2022/10/22 10:50:12;;;;;;;7.50;1.58;;;;;;;;;;5019696;28;20651;-70
2022/10/22 10:52:43;;;;;;;5.68;1.60;;;;;;;;;;5019822;28;20293;-71
2022/10/22 10:55:24;;;;;;;7.15;1.35;;;;;;;;;;5018707;28;20178;-70
2022/10/22 10:58:07;;;;;;;4.22;1.60;;;;;;;;;;5005348;28;20202;-70
2022/10/22 11:00:37;;;;;;;6.43;1.67;;;;;;;;;;5012790;28;20186;-71
2022/10/22 11:03:05;;;;;;;5.18;1.58;;;;;;;;;;5019291;28;20194;-70
2022/10/22 11:05:33;;;;;;;9.20;1.88;;;;;;;;;;5015014;28;20213;-70
2022/10/22 11:08:00;;;;;;;8.95;2.03;;;;;;;;;;5020193;28;20614;-71
2022/10/22 11:10:45;;;;;;;6.05;1.58;;;;;;;;;;5014026;28;20667;-71
2022/10/22 11:13:14;;;;;;;8.90;2.35;;;;;;;;;;5020547;28;20207;-71
2022/10/22 11:15:40;;;;;;;7.50;2.25;;;;;;;;;;5019555;28;20750;-71
2022/10/22 11:18:24;;;;;;;7.75;1.52;;;;;;;;;;5024665;28;20183;-71
2022/10/22 11:20:52;;;;;;;4.43;1.17;;;;;;;;;;5018415;28;20255;-71
2022/10/22 11:23:23;;;;;;;8.77;1.90;;;;;;;;;;5016690;28;20190;-71
2022/10/22 11:25:49;;;;;;;9.77;1.80;;;;;;;;;;5023411;28;20246;-71
2022/10/22 11:28:26;;;;;;;6.05;1.60;;;;;;;;;;5003006;28;20206;-71
2022/10/22 11:30:56;;;;;;;5.65;1.77;;;;;;;;;;5014248;28;20202;-70
2022/10/22 11:33:23;;;;;;;11.27;2.05;;;;;;;;;;5011702;28;20246;-70
2022/10/22 11:35:49;;;;;;;5.70;1.20;;;;;;;;;;5018008;28;20680;-70
2022/10/22 11:38:16;;;;;;;6.70;1.65;;;;;;;;;;5017012;28;20184;-71
2022/10/22 11:40:46;;;;;;;8.35;2.25;;;;;;;;;;5007084;28;20664;-71
2022/10/22 11:43:25;;;;;;;8.60;2.17;;;;;;;;;;5021472;28;20194;-71
2022/10/22 11:45:55;;;;;;;5.97;2.17;;;;;;;;;;5020203;28;20744;-71
2022/10/22 11:48:25;;;;;;;8.18;1.70;;;;;;;;;;5020392;28;20183;-71
2022/10/22 11:50:55;;;;;;;9.02;1.60;;;;;;;;;;5014649;28;20490;-71
2022/10/22 11:53:29;;;;;;;7.13;1.92;;;;;;;;;;5018939;28;20216;-71
2022/10/22 11:56:17;;;;;;;11.80;1.98;;;;;;;;;;5024530;28;20216;-71
2022/10/22 11:58:43;;;;;;;5.05;1.70;;;;;;;;;;5010094;28;20191;-70
2022/10/22 12:01:08;;;;;;;9.65;2.28;;;;;;;;;;5026201;28;20220;-70
2022/10/22 12:03:34;;;;;;;10.73;2.78;;;;;;;;;;5018534;28;20183;-70
2022/10/22 12:06:11;;;;;;;6.07;1.67;;;;;;;;;;5017711;28;20199;-70
2022/10/22 12:08:45;;;;;;;10.15;1.40;;;;;;;;;;5015944;28;20634;-70
2022/10/22 12:11:10;;;;;;;9.57;2.47;;;;;;;;;;5012905;28;20178;-70
2022/10/22 12:13:51;;;;;;;11.37;2.00;;;;;;;;;;5024525;28;20201;-71
2022/10/22 12:16:17;;;;;;;11.30;2.42;;;;;;;;;;5009666;28;20509;-71
2022/10/22 12:18:43;;;;;;;8.05;2.03;;;;;;;;;;5015789;28;20262;-70
2022/10/22 12:21:12;;;;;;;5.70;2.03;;;;;;;;;;5019030;28;20249;-71
2022/10/22 12:23:38;;;;;;;8.05;1.95;;;;;;;;;;5023099;28;20183;-71
2022/10/22 12:26:04;;;;;;;11.82;2.40;;;;;;;;;;5012046;28;20222;-71
2022/10/22 12:28:35;;;;;;;9.52;2.15;;;;;;;;;;5004717;28;20347;-71
2022/10/22 12:31:01;;;;;;;8.88;2.35;;;;;;;;;;5014638;28;20313;-71
2022/10/22 12:33:28;;;;;;;10.40;2.37;;;;;;;;;;5015349;28;20329;-71
2022/10/22 12:35:56;;;;;;;9.10;2.20;;;;;;;;;;5020459;28;20953;-71
2022/10/22 12:38:23;;;;;;;9.05;2.10;;;;;;;;;;5026496;28;20621;-71
2022/10/22 12:40:49;;;;;;;8.07;2.05;;;;;;;;;;5009518;28;20176;-72
2022/10/22 12:43:18;;;;;;;12.43;1.98;;;;;;;;;;5021392;28;20882;-71
2022/10/22 12:45:45;;;;;;;6.82;1.75;;;;;;;;;;5001177;28;20191;-70
2022/10/22 12:48:14;;;;;;;11.35;2.67;;;;;;;;;;5022005;28;20178;-71
2022/10/22 12:50:41;;;;;;;6.28;1.75;;;;;;;;;;5007191;28;20186;-71
2022/10/22 12:53:15;;;;;;;7.82;2.25;;;;;;;;;;5016953;28;20198;-70
2022/10/22 12:55:40;;;;;;;8.27;2.00;;;;;;;;;;5016269;28;20274;-71
2022/10/22 12:58:06;;;;;;;5.85;2.15;;;;;;;;;;5016823;28;20615;-71
2022/10/22 13:00:32;;;;;;;12.50;3.47;;;;;;;;;;5019093;28;20294;-70
2022/10/22 13:02:59;;;;;;;7.43;2.63;;;;;;;;;;5012470;28;20170;-71
2022/10/22 13:05:26;;;;;;;10.32;2.55;;;;;;;;;;5003522;28;20236;-71
2022/10/22 13:08:15;;;;;;;10.40;2.17;;;;;;;;;;5019553;28;20224;-71
2022/10/22 13:10:48;;;;;;;7.88;2.47;;;;;;;;;;5016945;28;20206;-71
2022/10/22 13:13:30;;;;;;;8.27;2.15;;;;;;;;;;5001277;28;20202;-70
2022/10/22 13:15:55;;;;;;;11.40;4.07;;;;;;;;;;5012730;28;20190;-70
2022/10/22 13:18:22;;;;;;;9.35;2.67;;;;;;;;;;5016352;28;20251;-71
2022/10/22 13:20:57;;;;;;;6.72;2.05;;;;;;;;;;5007616;28;20170;-71
2022/10/22 13:23:24;;;;;;;8.57;2.90;;;;;;;;;;5011530;28;20257;-72
2022/10/22 13:25:57;;;;;;;9.70;2.65;;;;;;;;;;5001591;28;20754;-72
2022/10/22 13:28:26;;;;;;;11.38;3.05;;;;;;;;;;5012889;28;20174;-70
2022/10/22 13:30:56;;;;;;;9.95;2.08;;;;;;;;;;5000322;28;20179;-72
2022/10/22 13:33:27;;;;;;;8.50;2.33;;;;;;;;;;5014813;28;20208;-72
2022/10/22 13:35:53;;;;;;;13.48;2.65;;;;;;;;;;5015020;28;20669;-72
2022/10/22 13:38:20;;;;;;;12.77;3.97;;;;;;;;;;5022996;28;20316;-72
2022/10/22 13:40:45;;;;;;;12.20;3.17;;;;;;;;;;5009472;28;20206;-71
2022/10/22 13:43:11;;;;;;;10.65;3.78;;;;;;;;;;5013392;28;20206;-72
2022/10/22 13:45:36;;;;;;;7.57;2.90;;;;;;;;;;5020279;28;20207;-72
2022/10/22 13:48:02;;;;;;;12.15;3.30;;;;;;;;;;5017488;28;20186;-71
2022/10/22 13:50:27;;;;;;;9.93;2.85;;;;;;;;;;5022875;28;20671;-72
2022/10/22 13:52:54;;;;;;;8.77;2.97;;;;;;;;;;5017158;28;20209;-72
2022/10/22 13:55:21;;;;;;;9.82;2.60;;;;;;;;;;5016745;28;20248;-71
2022/10/22 13:57:46;;;;;;;7.75;2.22;;;;;;;;;;5006633;28;20221;-72
2022/10/22 14:00:13;;;;;;;8.25;2.17;;;;;;;;;;5020209;28;20178;-72
2022/10/22 14:02:38;;;;;;;6.13;2.05;;;;;;;;;;5017081;28;20563;-72
2022/10/22 14:05:07;;;;;;;7.93;2.08;;;;;;;;;;5021332;28;20178;-72
2022/10/22 14:07:33;;;;;;;10.05;2.53;;;;;;;;;;4996751;28;20225;-71
2022/10/22 14:09:58;;;;;;;5.00;1.83;;;;;;;;;;5020530;28;20183;-72
2022/10/22 14:12:24;;;;;;;9.33;2.90;;;;;;;;;;5016606;28;20293;-72
2022/10/22 14:14:49;;;;;;;8.82;2.42;;;;;;;;;;4991458;28;20427;-72
2022/10/22 14:17:15;;;;;;;7.05;1.90;;;;;;;;;;5035311;28;20284;-71
2022/10/22 14:19:42;;;;;;;7.90;2.10;;;;;;;;;;5024699;28;20163;-72
2022/10/22 14:22:11;;;;;;;11.88;2.20;;;;;;;;;;5010903;28;20210;-72
2022/10/22 14:24:37;;;;;;;9.40;2.53;;;;;;;;;;5012033;28;20242;-72
2022/10/22 14:27:02;;;;;;;7.43;2.40;;;;;;;;;;5025234;28;20214;-72
2022/10/22 14:29:27;;;;;;;7.05;1.77;;;;;;;;;;5021738;28;20408;-72
2022/10/22 14:31:52;;;;;;;7.07;1.58;;;;;;;;;;5025110;28;20614;-71
2022/10/22 14:34:17;;;;;;;5.90;1.65;;;;;;;;;;5023587;28;20584;-71
2022/10/22 14:36:43;;;;;;;7.87;1.63;;;;;;;;;;5017978;28;20202;-72
2022/10/22 14:39:08;;;;;;;10.23;1.88;;;;;;;;;;5021357;28;20404;-71
2022/10/22 14:41:33;;;;;;;8.83;2.73;;;;;;;;;;5017552;28;20201;-71
2022/10/22 14:43:59;;;;;;;6.53;2.30;;;;;;;;;;5020579;28;20854;-71